sensor_id;sensor_type;location;lat;lon;timestamp;P1;durP1;ratioP1;P2;durP2;ratioP2
842;SDS011;407;48.884;9.126;2023-05-07T00:02:21;10.30;;;3.73;;
842;SDS011;407;48.884;9.126;2023-05-07T00:04:47;9.35;;;4.15;;
842;SDS011;407;48.884;9.126;2023-05-07T00:07:13;11.27;;;3.85;;
842;SDS011;407;48.884;9.126;2023-05-07T00:09:39;9.30;;;3.50;;
842;SDS011;407;48.884;9.126;2023-05-07T00:12:05;8.75;;;3.78;;
842;SDS011;407;48.884;9.126;2023-05-07T00:14:33;10.88;;;3.78;;
842;SDS011;407;48.884;9.126;2023-05-07T00:16:58;9.73;;;4.40;;
842;SDS011;407;48.884;9.126;2023-05-07T00:19:24;8.45;;;3.40;;
842;SDS011;407;48.884;9.126;2023-05-07T00:21:49;7.47;;;3.50;;
842;SDS011;407;48.884;9.126;2023-05-07T00:24:15;9.80;;;3.80;;
842;SDS011;407;48.884;9.126;2023-05-07T00:26:41;9.07;;;3.83;;
842;SDS011;407;48.884;9.126;2023-05-07T00:29:06;9.95;;;4.15;;
842;SDS011;407;48.884;9.126;2023-05-07T00:31:32;8.90;;;4.00;;
842;SDS011;407;48.884;9.126;2023-05-07T00:33:58;9.20;;;4.10;;
842;SDS011;407;48.884;9.126;2023-05-07T00:36:23;9.80;;;4.70;;
842;SDS011;407;48.884;9.126;2023-05-07T00:38:49;8.13;;;4.30;;
842;SDS011;407;48.884;9.126;2023-05-07T00:41:15;8.50;;;4.40;;
842;SDS011;407;48.884;9.126;2023-05-07T00:43:40;9.95;;;4.40;;
842;SDS011;407;48.884;9.126;2023-05-07T00:46:06;10.43;;;4.40;;
842;SDS011;407;48.884;9.126;2023-05-07T00:48:31;9.95;;;4.53;;
842;SDS011;407;48.884;9.126;2023-05-07T00:50:57;9.77;;;4.27;;
842;SDS011;407;48.884;9.126;2023-05-07T00:53:23;9.20;;;4.30;;
842;SDS011;407;48.884;9.126;2023-05-07T00:55:49;10.57;;;4.30;;
842;SDS011;407;48.884;9.126;2023-05-07T00:58:15;11.68;;;4.25;;
842;SDS011;407;48.884;9.126;2023-05-07T01:00:41;7.88;;;4.00;;
842;SDS011;407;48.884;9.126;2023-05-07T01:03:07;9.40;;;4.37;;
842;SDS011;407;48.884;9.126;2023-05-07T01:05:32;9.95;;;4.80;;
842;SDS011;407;48.884;9.126;2023-05-07T01:07:58;9.63;;;4.75;;
842;SDS011;407;48.884;9.126;2023-05-07T01:10:24;9.40;;;5.15;;
842;SDS011;407;48.884;9.126;2023-05-07T01:12:51;8.98;;;4.55;;
842;SDS011;407;48.884;9.126;2023-05-07T01:15:17;9.80;;;5.07;;
842;SDS011;407;48.884;9.126;2023-05-07T01:17:43;9.63;;;4.95;;
842;SDS011;407;48.884;9.126;2023-05-07T01:20:09;9.90;;;4.73;;
842;SDS011;407;48.884;9.126;2023-05-07T01:22:38;10.18;;;4.40;;
842;SDS011;407;48.884;9.126;2023-05-07T01:25:05;8.80;;;4.15;;
842;SDS011;407;48.884;9.126;2023-05-07T01:27:32;8.50;;;4.30;;
842;SDS011;407;48.884;9.126;2023-05-07T01:30:02;10.48;;;4.75;;
842;SDS011;407;48.884;9.126;2023-05-07T01:32:40;8.80;;;4.00;;
842;SDS011;407;48.884;9.126;2023-05-07T01:35:11;8.80;;;4.50;;
842;SDS011;407;48.884;9.126;2023-05-07T01:37:39;8.80;;;4.20;;
842;SDS011;407;48.884;9.126;2023-05-07T01:40:05;10.50;;;4.50;;
842;SDS011;407;48.884;9.126;2023-05-07T01:42:32;9.27;;;4.53;;
842;SDS011;407;48.884;9.126;2023-05-07T01:44:58;8.98;;;3.80;;
842;SDS011;407;48.884;9.126;2023-05-07T01:47:24;11.20;;;4.50;;
842;SDS011;407;48.884;9.126;2023-05-07T01:49:52;8.68;;;4.20;;
842;SDS011;407;48.884;9.126;2023-05-07T01:52:19;8.98;;;4.03;;
842;SDS011;407;48.884;9.126;2023-05-07T01:54:45;9.25;;;4.45;;
842;SDS011;407;48.884;9.126;2023-05-07T01:57:11;8.35;;;4.30;;
842;SDS011;407;48.884;9.126;2023-05-07T01:59:36;8.93;;;4.60;;
842;SDS011;407;48.884;9.126;2023-05-07T02:02:02;8.20;;;4.10;;
842;SDS011;407;48.884;9.126;2023-05-07T02:04:27;8.50;;;4.20;;
842;SDS011;407;48.884;9.126;2023-05-07T02:06:53;8.00;;;3.70;;
842;SDS011;407;48.884;9.126;2023-05-07T02:09:19;8.97;;;3.80;;
842;SDS011;407;48.884;9.126;2023-05-07T02:11:44;7.95;;;4.13;;
842;SDS011;407;48.884;9.126;2023-05-07T02:14:10;8.10;;;3.80;;
842;SDS011;407;48.884;9.126;2023-05-07T02:16:36;9.80;;;4.27;;
842;SDS011;407;48.884;9.126;2023-05-07T02:19:01;8.70;;;4.38;;
842;SDS011;407;48.884;9.126;2023-05-07T02:21:27;8.67;;;4.10;;
842;SDS011;407;48.884;9.126;2023-05-07T02:23:53;9.60;;;4.40;;
842;SDS011;407;48.884;9.126;2023-05-07T02:26:18;9.10;;;4.00;;
842;SDS011;407;48.884;9.126;2023-05-07T02:28:44;8.73;;;4.30;;
842;SDS011;407;48.884;9.126;2023-05-07T02:31:10;11.00;;;4.90;;
842;SDS011;407;48.884;9.126;2023-05-07T02:33:35;9.90;;;4.23;;
842;SDS011;407;48.884;9.126;2023-05-07T02:36:11;9.05;;;4.20;;
842;SDS011;407;48.884;9.126;2023-05-07T02:38:37;10.40;;;4.78;;
842;SDS011;407;48.884;9.126;2023-05-07T02:41:03;9.83;;;4.50;;
842;SDS011;407;48.884;9.126;2023-05-07T02:43:28;9.93;;;4.30;;
842;SDS011;407;48.884;9.126;2023-05-07T02:46:08;9.30;;;4.73;;
842;SDS011;407;48.884;9.126;2023-05-07T02:48:34;10.27;;;4.13;;
842;SDS011;407;48.884;9.126;2023-05-07T02:51:00;8.87;;;4.37;;
842;SDS011;407;48.884;9.126;2023-05-07T02:53:26;9.18;;;4.43;;
842;SDS011;407;48.884;9.126;2023-05-07T02:55:53;9.88;;;4.70;;
842;SDS011;407;48.884;9.126;2023-05-07T02:58:21;10.80;;;5.40;;
842;SDS011;407;48.884;9.126;2023-05-07T03:00:47;9.25;;;5.20;;
842;SDS011;407;48.884;9.126;2023-05-07T03:03:13;13.15;;;5.32;;
842;SDS011;407;48.884;9.126;2023-05-07T03:05:39;10.40;;;5.60;;
842;SDS011;407;48.884;9.126;2023-05-07T03:08:05;9.80;;;5.10;;
842;SDS011;407;48.884;9.126;2023-05-07T03:10:31;12.02;;;5.40;;
842;SDS011;407;48.884;9.126;2023-05-07T03:12:56;10.60;;;5.37;;
842;SDS011;407;48.884;9.126;2023-05-07T03:15:22;11.63;;;5.33;;
842;SDS011;407;48.884;9.126;2023-05-07T03:17:47;11.02;;;5.13;;
842;SDS011;407;48.884;9.126;2023-05-07T03:20:13;10.20;;;4.70;;
842;SDS011;407;48.884;9.126;2023-05-07T03:22:39;11.10;;;5.55;;
842;SDS011;407;48.884;9.126;2023-05-07T03:25:05;9.67;;;4.97;;
842;SDS011;407;48.884;9.126;2023-05-07T03:27:33;8.02;;;4.57;;
842;SDS011;407;48.884;9.126;2023-05-07T03:29:59;10.90;;;5.20;;
842;SDS011;407;48.884;9.126;2023-05-07T03:32:25;11.65;;;5.25;;
842;SDS011;407;48.884;9.126;2023-05-07T03:34:51;9.75;;;5.40;;
842;SDS011;407;48.884;9.126;2023-05-07T03:37:17;10.80;;;5.45;;
842;SDS011;407;48.884;9.126;2023-05-07T03:39:43;10.48;;;5.45;;
842;SDS011;407;48.884;9.126;2023-05-07T03:42:09;11.60;;;5.60;;
842;SDS011;407;48.884;9.126;2023-05-07T03:44:34;11.30;;;4.60;;
842;SDS011;407;48.884;9.126;2023-05-07T03:47:01;11.38;;;5.40;;
842;SDS011;407;48.884;9.126;2023-05-07T03:49:27;10.15;;;4.70;;
842;SDS011;407;48.884;9.126;2023-05-07T03:51:53;13.10;;;5.00;;
842;SDS011;407;48.884;9.126;2023-05-07T03:54:18;10.67;;;4.53;;
842;SDS011;407;48.884;9.126;2023-05-07T03:56:44;8.52;;;4.80;;
842;SDS011;407;48.884;9.126;2023-05-07T03:59:09;14.83;;;5.00;;
842;SDS011;407;48.884;9.126;2023-05-07T04:01:35;9.60;;;4.70;;
842;SDS011;407;48.884;9.126;2023-05-07T04:04:01;8.98;;;4.40;;
842;SDS011;407;48.884;9.126;2023-05-07T04:06:26;10.03;;;4.90;;
842;SDS011;407;48.884;9.126;2023-05-07T04:08:52;9.13;;;5.07;;
842;SDS011;407;48.884;9.126;2023-05-07T04:11:18;9.13;;;4.00;;
842;SDS011;407;48.884;9.126;2023-05-07T04:13:43;10.87;;;4.57;;
842;SDS011;407;48.884;9.126;2023-05-07T04:16:09;8.38;;;4.10;;
842;SDS011;407;48.884;9.126;2023-05-07T04:18:34;8.17;;;4.07;;
842;SDS011;407;48.884;9.126;2023-05-07T04:21:01;9.40;;;4.53;;
842;SDS011;407;48.884;9.126;2023-05-07T04:23:26;8.90;;;4.18;;
842;SDS011;407;48.884;9.126;2023-05-07T04:25:52;8.17;;;3.90;;
842;SDS011;407;48.884;9.126;2023-05-07T04:28:19;8.68;;;4.60;;
842;SDS011;407;48.884;9.126;2023-05-07T04:30:45;8.45;;;4.30;;
842;SDS011;407;48.884;9.126;2023-05-07T04:33:11;8.65;;;4.40;;
842;SDS011;407;48.884;9.126;2023-05-07T04:35:36;8.90;;;4.30;;
842;SDS011;407;48.884;9.126;2023-05-07T04:38:02;9.70;;;4.60;;
842;SDS011;407;48.884;9.126;2023-05-07T04:40:28;9.38;;;4.43;;
842;SDS011;407;48.884;9.126;2023-05-07T04:42:54;8.03;;;4.13;;
842;SDS011;407;48.884;9.126;2023-05-07T04:45:19;8.63;;;4.45;;
842;SDS011;407;48.884;9.126;2023-05-07T04:47:45;11.30;;;4.90;;
842;SDS011;407;48.884;9.126;2023-05-07T04:50:10;9.47;;;5.00;;
842;SDS011;407;48.884;9.126;2023-05-07T04:52:36;10.05;;;4.38;;
842;SDS011;407;48.884;9.126;2023-05-07T04:55:02;11.70;;;4.20;;
842;SDS011;407;48.884;9.126;2023-05-07T04:57:28;8.25;;;4.20;;
842;SDS011;407;48.884;9.126;2023-05-07T04:59:53;9.70;;;4.43;;
842;SDS011;407;48.884;9.126;2023-05-07T05:02:19;9.90;;;4.50;;
842;SDS011;407;48.884;9.126;2023-05-07T05:04:45;7.87;;;3.87;;
842;SDS011;407;48.884;9.126;2023-05-07T05:07:11;9.45;;;4.43;;
842;SDS011;407;48.884;9.126;2023-05-07T05:09:36;8.03;;;3.90;;
842;SDS011;407;48.884;9.126;2023-05-07T05:12:02;7.85;;;3.88;;
842;SDS011;407;48.884;9.126;2023-05-07T05:14:28;8.95;;;4.03;;
842;SDS011;407;48.884;9.126;2023-05-07T05:16:54;8.60;;;4.30;;
842;SDS011;407;48.884;9.126;2023-05-07T05:19:20;8.47;;;3.80;;
842;SDS011;407;48.884;9.126;2023-05-07T05:21:45;7.82;;;4.00;;
842;SDS011;407;48.884;9.126;2023-05-07T05:24:11;9.63;;;4.90;;
842;SDS011;407;48.884;9.126;2023-05-07T05:26:36;9.50;;;4.60;;
842;SDS011;407;48.884;9.126;2023-05-07T05:29:02;8.60;;;4.30;;
842;SDS011;407;48.884;9.126;2023-05-07T05:31:28;10.90;;;4.03;;
842;SDS011;407;48.884;9.126;2023-05-07T05:33:53;8.23;;;3.30;;
842;SDS011;407;48.884;9.126;2023-05-07T05:36:19;9.35;;;3.83;;
842;SDS011;407;48.884;9.126;2023-05-07T05:38:45;7.80;;;3.33;;
842;SDS011;407;48.884;9.126;2023-05-07T05:41:11;8.00;;;3.70;;
842;SDS011;407;48.884;9.126;2023-05-07T05:43:36;8.20;;;3.80;;
842;SDS011;407;48.884;9.126;2023-05-07T05:46:02;8.67;;;4.03;;
842;SDS011;407;48.884;9.126;2023-05-07T05:48:29;9.15;;;4.10;;
842;SDS011;407;48.884;9.126;2023-05-07T05:50:55;8.00;;;5.38;;
842;SDS011;407;48.884;9.126;2023-05-07T05:53:21;9.63;;;5.72;;
842;SDS011;407;48.884;9.126;2023-05-07T05:55:46;8.80;;;6.50;;
842;SDS011;407;48.884;9.126;2023-05-07T05:58:12;8.70;;;6.00;;
842;SDS011;407;48.884;9.126;2023-05-07T06:00:38;7.63;;;5.00;;
842;SDS011;407;48.884;9.126;2023-05-07T06:03:03;7.78;;;3.13;;
842;SDS011;407;48.884;9.126;2023-05-07T06:05:29;10.10;;;2.95;;
842;SDS011;407;48.884;9.126;2023-05-07T06:07:55;6.93;;;2.90;;
842;SDS011;407;48.884;9.126;2023-05-07T06:10:20;6.40;;;2.40;;
842;SDS011;407;48.884;9.126;2023-05-07T06:12:46;7.40;;;2.90;;
842;SDS011;407;48.884;9.126;2023-05-07T06:15:12;7.43;;;4.70;;
842;SDS011;407;48.884;9.126;2023-05-07T06:17:37;10.27;;;5.30;;
842;SDS011;407;48.884;9.126;2023-05-07T06:20:03;7.78;;;4.90;;
842;SDS011;407;48.884;9.126;2023-05-07T06:22:29;7.38;;;4.95;;
842;SDS011;407;48.884;9.126;2023-05-07T06:24:56;7.17;;;4.80;;
842;SDS011;407;48.884;9.126;2023-05-07T06:27:21;7.23;;;4.50;;
842;SDS011;407;48.884;9.126;2023-05-07T06:29:47;7.90;;;4.63;;
842;SDS011;407;48.884;9.126;2023-05-07T06:32:13;7.00;;;4.30;;
842;SDS011;407;48.884;9.126;2023-05-07T06:34:39;7.90;;;4.70;;
842;SDS011;407;48.884;9.126;2023-05-07T06:37:05;7.20;;;4.20;;
842;SDS011;407;48.884;9.126;2023-05-07T06:39:31;6.70;;;4.10;;
842;SDS011;407;48.884;9.126;2023-05-07T06:41:58;10.60;;;5.10;;
842;SDS011;407;48.884;9.126;2023-05-07T06:44:24;8.80;;;5.60;;
842;SDS011;407;48.884;9.126;2023-05-07T06:46:50;8.50;;;5.80;;
842;SDS011;407;48.884;9.126;2023-05-07T06:49:15;9.05;;;6.28;;
842;SDS011;407;48.884;9.126;2023-05-07T06:51:41;8.73;;;3.97;;
842;SDS011;407;48.884;9.126;2023-05-07T06:54:07;8.60;;;7.70;;
842;SDS011;407;48.884;9.126;2023-05-07T06:56:33;9.82;;;7.30;;
842;SDS011;407;48.884;9.126;2023-05-07T06:58:59;8.43;;;7.53;;
842;SDS011;407;48.884;9.126;2023-05-07T07:01:26;8.85;;;7.95;;
842;SDS011;407;48.884;9.126;2023-05-07T07:03:52;7.90;;;6.50;;
842;SDS011;407;48.884;9.126;2023-05-07T07:06:17;9.50;;;7.60;;
842;SDS011;407;48.884;9.126;2023-05-07T07:08:43;9.27;;;7.10;;
842;SDS011;407;48.884;9.126;2023-05-07T07:11:09;9.27;;;7.85;;
842;SDS011;407;48.884;9.126;2023-05-07T07:13:35;8.10;;;6.95;;
842;SDS011;407;48.884;9.126;2023-05-07T07:16:00;8.57;;;6.88;;
842;SDS011;407;48.884;9.126;2023-05-07T07:18:26;10.03;;;7.30;;
842;SDS011;407;48.884;9.126;2023-05-07T07:20:52;9.40;;;8.50;;
842;SDS011;407;48.884;9.126;2023-05-07T07:23:18;8.05;;;7.25;;
842;SDS011;407;48.884;9.126;2023-05-07T07:25:44;8.87;;;6.77;;
842;SDS011;407;48.884;9.126;2023-05-07T07:28:09;9.15;;;7.05;;
842;SDS011;407;48.884;9.126;2023-05-07T07:30:36;8.60;;;6.55;;
842;SDS011;407;48.884;9.126;2023-05-07T07:33:02;10.00;;;6.30;;
842;SDS011;407;48.884;9.126;2023-05-07T07:35:34;7.90;;;5.90;;
842;SDS011;407;48.884;9.126;2023-05-07T07:38:00;8.07;;;6.50;;
842;SDS011;407;48.884;9.126;2023-05-07T07:40:26;10.43;;;6.53;;
842;SDS011;407;48.884;9.126;2023-05-07T07:42:52;10.63;;;6.30;;
842;SDS011;407;48.884;9.126;2023-05-07T07:45:18;8.50;;;6.07;;
842;SDS011;407;48.884;9.126;2023-05-07T07:47:44;9.90;;;6.15;;
842;SDS011;407;48.884;9.126;2023-05-07T07:50:10;8.65;;;6.15;;
842;SDS011;407;48.884;9.126;2023-05-07T07:52:36;7.70;;;5.50;;
842;SDS011;407;48.884;9.126;2023-05-07T07:55:02;8.35;;;5.93;;
842;SDS011;407;48.884;9.126;2023-05-07T07:57:28;9.38;;;5.70;;
842;SDS011;407;48.884;9.126;2023-05-07T07:59:53;8.43;;;5.93;;
842;SDS011;407;48.884;9.126;2023-05-07T08:02:19;8.70;;;5.40;;
842;SDS011;407;48.884;9.126;2023-05-07T08:04:45;7.90;;;4.90;;
842;SDS011;407;48.884;9.126;2023-05-07T08:07:10;8.40;;;5.60;;
842;SDS011;407;48.884;9.126;2023-05-07T08:09:37;9.30;;;5.45;;
842;SDS011;407;48.884;9.126;2023-05-07T08:12:04;8.50;;;5.67;;
842;SDS011;407;48.884;9.126;2023-05-07T08:14:30;8.00;;;4.97;;
842;SDS011;407;48.884;9.126;2023-05-07T08:16:56;9.02;;;5.40;;
842;SDS011;407;48.884;9.126;2023-05-07T08:19:21;10.80;;;5.20;;
842;SDS011;407;48.884;9.126;2023-05-07T08:21:47;9.00;;;4.90;;
842;SDS011;407;48.884;9.126;2023-05-07T08:24:16;8.85;;;5.40;;
842;SDS011;407;48.884;9.126;2023-05-07T08:26:43;7.47;;;4.40;;
842;SDS011;407;48.884;9.126;2023-05-07T08:29:09;8.77;;;5.20;;
842;SDS011;407;48.884;9.126;2023-05-07T08:31:35;8.60;;;5.30;;
842;SDS011;407;48.884;9.126;2023-05-07T08:34:00;10.37;;;5.60;;
842;SDS011;407;48.884;9.126;2023-05-07T08:36:26;7.95;;;4.50;;
842;SDS011;407;48.884;9.126;2023-05-07T08:38:54;9.27;;;5.10;;
842;SDS011;407;48.884;9.126;2023-05-07T08:41:20;11.98;;;5.40;;
842;SDS011;407;48.884;9.126;2023-05-07T08:43:47;8.68;;;5.43;;
842;SDS011;407;48.884;9.126;2023-05-07T08:46:18;7.90;;;5.28;;
842;SDS011;407;48.884;9.126;2023-05-07T08:48:50;8.05;;;6.28;;
842;SDS011;407;48.884;9.126;2023-05-07T08:51:17;10.23;;;8.20;;
842;SDS011;407;48.884;9.126;2023-05-07T08:53:44;10.57;;;8.48;;
842;SDS011;407;48.884;9.126;2023-05-07T08:56:11;8.82;;;5.78;;
842;SDS011;407;48.884;9.126;2023-05-07T08:58:37;9.35;;;8.02;;
842;SDS011;407;48.884;9.126;2023-05-07T09:01:03;9.63;;;8.73;;
842;SDS011;407;48.884;9.126;2023-05-07T09:03:33;8.27;;;5.20;;
842;SDS011;407;48.884;9.126;2023-05-07T09:05:59;7.70;;;3.80;;
842;SDS011;407;48.884;9.126;2023-05-07T09:08:28;7.30;;;3.40;;
842;SDS011;407;48.884;9.126;2023-05-07T09:10:54;9.80;;;4.57;;
842;SDS011;407;48.884;9.126;2023-05-07T09:13:20;12.55;;;8.52;;
842;SDS011;407;48.884;9.126;2023-05-07T09:15:46;8.10;;;4.30;;
842;SDS011;407;48.884;9.126;2023-05-07T09:18:12;9.25;;;4.05;;
842;SDS011;407;48.884;9.126;2023-05-07T09:20:38;9.00;;;3.92;;
842;SDS011;407;48.884;9.126;2023-05-07T09:23:05;8.50;;;3.92;;
842;SDS011;407;48.884;9.126;2023-05-07T09:25:33;10.40;;;6.10;;
842;SDS011;407;48.884;9.126;2023-05-07T09:27:59;7.72;;;3.92;;
842;SDS011;407;48.884;9.126;2023-05-07T09:30:29;9.23;;;5.55;;
842;SDS011;407;48.884;9.126;2023-05-07T09:32:56;8.05;;;3.85;;
842;SDS011;407;48.884;9.126;2023-05-07T09:35:22;8.35;;;4.00;;
842;SDS011;407;48.884;9.126;2023-05-07T09:37:57;8.57;;;4.15;;
842;SDS011;407;48.884;9.126;2023-05-07T09:40:25;7.75;;;3.42;;
842;SDS011;407;48.884;9.126;2023-05-07T09:42:55;8.23;;;4.00;;
842;SDS011;407;48.884;9.126;2023-05-07T09:45:21;8.15;;;3.90;;
842;SDS011;407;48.884;9.126;2023-05-07T09:47:53;8.02;;;3.40;;
842;SDS011;407;48.884;9.126;2023-05-07T09:50:22;6.95;;;3.22;;
842;SDS011;407;48.884;9.126;2023-05-07T09:52:52;6.60;;;2.70;;
842;SDS011;407;48.884;9.126;2023-05-07T09:55:20;7.50;;;3.07;;
842;SDS011;407;48.884;9.126;2023-05-07T09:57:46;6.90;;;3.30;;
842;SDS011;407;48.884;9.126;2023-05-07T10:00:18;7.57;;;3.42;;
842;SDS011;407;48.884;9.126;2023-05-07T10:02:45;6.88;;;3.17;;
842;SDS011;407;48.884;9.126;2023-05-07T10:05:17;8.20;;;3.70;;
842;SDS011;407;48.884;9.126;2023-05-07T10:07:44;8.60;;;3.40;;
842;SDS011;407;48.884;9.126;2023-05-07T10:10:10;6.80;;;2.80;;
842;SDS011;407;48.884;9.126;2023-05-07T10:12:36;8.70;;;3.17;;
842;SDS011;407;48.884;9.126;2023-05-07T10:15:10;7.35;;;4.25;;
842;SDS011;407;48.884;9.126;2023-05-07T10:17:39;8.57;;;7.68;;
842;SDS011;407;48.884;9.126;2023-05-07T10:20:06;8.02;;;7.00;;
842;SDS011;407;48.884;9.126;2023-05-07T10:22:37;8.55;;;7.65;;
842;SDS011;407;48.884;9.126;2023-05-07T10:25:14;7.83;;;7.03;;
842;SDS011;407;48.884;9.126;2023-05-07T10:27:46;9.07;;;7.30;;
842;SDS011;407;48.884;9.126;2023-05-07T10:32:53;9.43;;;8.45;;
842;SDS011;407;48.884;9.126;2023-05-07T10:35:22;9.40;;;8.40;;
842;SDS011;407;48.884;9.126;2023-05-07T10:37:51;9.45;;;8.52;;
842;SDS011;407;48.884;9.126;2023-05-07T10:40:17;9.85;;;7.70;;
842;SDS011;407;48.884;9.126;2023-05-07T10:45:24;9.00;;;8.02;;
842;SDS011;407;48.884;9.126;2023-05-07T10:48:06;8.75;;;7.85;;
842;SDS011;407;48.884;9.126;2023-05-07T10:50:35;9.20;;;7.80;;
842;SDS011;407;48.884;9.126;2023-05-07T10:55:46;8.90;;;7.50;;
842;SDS011;407;48.884;9.126;2023-05-07T11:00:50;8.52;;;7.40;;
842;SDS011;407;48.884;9.126;2023-05-07T11:03:16;9.32;;;7.90;;
842;SDS011;407;48.884;9.126;2023-05-07T11:05:42;8.67;;;7.10;;
842;SDS011;407;48.884;9.126;2023-05-07T11:08:08;9.27;;;7.40;;
842;SDS011;407;48.884;9.126;2023-05-07T11:16:28;8.70;;;7.80;;
842;SDS011;407;48.884;9.126;2023-05-07T11:18:53;9.20;;;8.30;;
842;SDS011;407;48.884;9.126;2023-05-07T11:21:32;8.60;;;7.40;;
842;SDS011;407;48.884;9.126;2023-05-07T11:24:05;8.40;;;6.90;;
842;SDS011;407;48.884;9.126;2023-05-07T11:26:41;8.70;;;6.60;;
842;SDS011;407;48.884;9.126;2023-05-07T11:29:21;10.02;;;6.95;;
842;SDS011;407;48.884;9.126;2023-05-07T11:31:53;7.97;;;6.70;;
842;SDS011;407;48.884;9.126;2023-05-07T11:34:23;10.65;;;7.15;;
842;SDS011;407;48.884;9.126;2023-05-07T11:36:50;9.18;;;6.70;;
842;SDS011;407;48.884;9.126;2023-05-07T11:39:23;8.45;;;7.28;;
842;SDS011;407;48.884;9.126;2023-05-07T11:41:58;8.70;;;6.80;;
842;SDS011;407;48.884;9.126;2023-05-07T11:44:48;8.13;;;7.07;;
842;SDS011;407;48.884;9.126;2023-05-07T11:47:17;7.65;;;6.57;;
842;SDS011;407;48.884;9.126;2023-05-07T11:49:45;8.47;;;7.00;;
842;SDS011;407;48.884;9.126;2023-05-07T11:52:13;11.45;;;6.70;;
842;SDS011;407;48.884;9.126;2023-05-07T11:54:39;9.35;;;7.03;;
842;SDS011;407;48.884;9.126;2023-05-07T11:57:05;8.55;;;6.90;;
842;SDS011;407;48.884;9.126;2023-05-07T11:59:41;8.60;;;6.70;;
842;SDS011;407;48.884;9.126;2023-05-07T12:02:09;9.90;;;7.35;;
842;SDS011;407;48.884;9.126;2023-05-07T12:04:35;9.50;;;6.80;;
842;SDS011;407;48.884;9.126;2023-05-07T12:07:00;8.82;;;6.80;;
842;SDS011;407;48.884;9.126;2023-05-07T12:09:26;8.80;;;6.30;;
842;SDS011;407;48.884;9.126;2023-05-07T12:11:52;8.27;;;6.40;;
842;SDS011;407;48.884;9.126;2023-05-07T12:14:18;8.23;;;6.73;;
842;SDS011;407;48.884;9.126;2023-05-07T12:16:43;8.23;;;6.93;;
842;SDS011;407;48.884;9.126;2023-05-07T12:19:10;8.20;;;6.57;;
842;SDS011;407;48.884;9.126;2023-05-07T12:21:39;8.00;;;6.50;;
842;SDS011;407;48.884;9.126;2023-05-07T12:24:05;10.30;;;7.07;;
842;SDS011;407;48.884;9.126;2023-05-07T12:26:32;8.60;;;6.55;;
842;SDS011;407;48.884;9.126;2023-05-07T12:29:03;8.30;;;6.20;;
842;SDS011;407;48.884;9.126;2023-05-07T12:31:28;7.90;;;6.10;;
842;SDS011;407;48.884;9.126;2023-05-07T12:33:54;7.90;;;6.57;;
842;SDS011;407;48.884;9.126;2023-05-07T12:36:20;8.33;;;5.93;;
842;SDS011;407;48.884;9.126;2023-05-07T12:38:46;8.20;;;6.80;;
842;SDS011;407;48.884;9.126;2023-05-07T12:41:15;7.10;;;6.10;;
842;SDS011;407;48.884;9.126;2023-05-07T12:43:43;8.10;;;6.18;;
842;SDS011;407;48.884;9.126;2023-05-07T12:46:10;7.60;;;6.20;;
842;SDS011;407;48.884;9.126;2023-05-07T12:48:38;7.80;;;5.38;;
842;SDS011;407;48.884;9.126;2023-05-07T12:51:10;9.00;;;4.97;;
842;SDS011;407;48.884;9.126;2023-05-07T12:53:41;7.83;;;4.53;;
842;SDS011;407;48.884;9.126;2023-05-07T12:56:07;9.10;;;4.55;;
842;SDS011;407;48.884;9.126;2023-05-07T12:58:34;9.48;;;4.25;;
842;SDS011;407;48.884;9.126;2023-05-07T13:01:03;8.30;;;3.60;;
842;SDS011;407;48.884;9.126;2023-05-07T13:03:31;10.50;;;3.80;;
842;SDS011;407;48.884;9.126;2023-05-07T13:06:07;7.93;;;3.50;;
842;SDS011;407;48.884;9.126;2023-05-07T13:08:39;7.03;;;3.05;;
842;SDS011;407;48.884;9.126;2023-05-07T13:11:08;6.60;;;2.77;;
842;SDS011;407;48.884;9.126;2023-05-07T13:13:36;7.05;;;2.60;;
842;SDS011;407;48.884;9.126;2023-05-07T13:16:03;7.50;;;2.30;;
842;SDS011;407;48.884;9.126;2023-05-07T13:18:31;6.93;;;2.00;;
842;SDS011;407;48.884;9.126;2023-05-07T13:20:57;5.88;;;2.28;;
842;SDS011;407;48.884;9.126;2023-05-07T13:23:23;6.60;;;2.10;;
842;SDS011;407;48.884;9.126;2023-05-07T13:25:49;7.30;;;2.00;;
842;SDS011;407;48.884;9.126;2023-05-07T13:28:15;5.80;;;1.88;;
842;SDS011;407;48.884;9.126;2023-05-07T13:30:43;5.30;;;2.08;;
842;SDS011;407;48.884;9.126;2023-05-07T13:33:09;5.40;;;1.67;;
842;SDS011;407;48.884;9.126;2023-05-07T13:35:35;6.40;;;1.83;;
842;SDS011;407;48.884;9.126;2023-05-07T13:38:00;6.10;;;1.77;;
842;SDS011;407;48.884;9.126;2023-05-07T13:40:26;5.75;;;1.60;;
842;SDS011;407;48.884;9.126;2023-05-07T13:42:52;6.55;;;1.75;;
842;SDS011;407;48.884;9.126;2023-05-07T13:45:18;6.32;;;1.70;;
842;SDS011;407;48.884;9.126;2023-05-07T13:47:45;7.32;;;1.92;;
842;SDS011;407;48.884;9.126;2023-05-07T13:50:11;6.90;;;1.70;;
842;SDS011;407;48.884;9.126;2023-05-07T13:52:41;5.45;;;1.65;;
842;SDS011;407;48.884;9.126;2023-05-07T13:55:08;5.68;;;1.60;;
842;SDS011;407;48.884;9.126;2023-05-07T13:57:35;5.70;;;2.03;;
842;SDS011;407;48.884;9.126;2023-05-07T14:00:01;6.60;;;2.00;;
842;SDS011;407;48.884;9.126;2023-05-07T14:02:29;6.07;;;1.80;;
842;SDS011;407;48.884;9.126;2023-05-07T14:04:56;5.75;;;1.80;;
842;SDS011;407;48.884;9.126;2023-05-07T14:07:21;6.60;;;2.07;;
842;SDS011;407;48.884;9.126;2023-05-07T14:09:47;6.10;;;1.80;;
842;SDS011;407;48.884;9.126;2023-05-07T14:12:12;6.17;;;1.70;;
842;SDS011;407;48.884;9.126;2023-05-07T14:14:38;6.37;;;1.90;;
842;SDS011;407;48.884;9.126;2023-05-07T14:17:04;5.90;;;1.70;;
842;SDS011;407;48.884;9.126;2023-05-07T14:19:30;6.13;;;1.85;;
842;SDS011;407;48.884;9.126;2023-05-07T14:21:55;6.10;;;1.80;;
842;SDS011;407;48.884;9.126;2023-05-07T14:24:21;7.47;;;1.90;;
842;SDS011;407;48.884;9.126;2023-05-07T14:26:47;5.20;;;1.60;;
842;SDS011;407;48.884;9.126;2023-05-07T14:29:12;6.20;;;1.70;;
842;SDS011;407;48.884;9.126;2023-05-07T14:31:40;7.00;;;2.17;;
842;SDS011;407;48.884;9.126;2023-05-07T14:34:06;5.90;;;1.90;;
842;SDS011;407;48.884;9.126;2023-05-07T14:36:31;6.13;;;2.10;;
842;SDS011;407;48.884;9.126;2023-05-07T14:38:57;5.90;;;2.07;;
842;SDS011;407;48.884;9.126;2023-05-07T14:41:24;6.40;;;2.25;;
842;SDS011;407;48.884;9.126;2023-05-07T14:43:50;6.07;;;2.17;;
842;SDS011;407;48.884;9.126;2023-05-07T14:46:18;7.47;;;2.40;;
842;SDS011;407;48.884;9.126;2023-05-07T14:48:44;6.05;;;2.00;;
842;SDS011;407;48.884;9.126;2023-05-07T14:51:11;7.50;;;2.90;;
842;SDS011;407;48.884;9.126;2023-05-07T14:53:37;6.80;;;2.92;;
842;SDS011;407;48.884;9.126;2023-05-07T14:56:04;7.50;;;2.80;;
842;SDS011;407;48.884;9.126;2023-05-07T14:58:30;7.80;;;2.80;;
842;SDS011;407;48.884;9.126;2023-05-07T15:00:56;6.40;;;2.30;;
842;SDS011;407;48.884;9.126;2023-05-07T15:03:22;6.43;;;2.73;;
842;SDS011;407;48.884;9.126;2023-05-07T15:05:48;7.10;;;2.80;;
842;SDS011;407;48.884;9.126;2023-05-07T15:08:16;7.20;;;3.00;;
842;SDS011;407;48.884;9.126;2023-05-07T15:10:42;10.02;;;2.92;;
842;SDS011;407;48.884;9.126;2023-05-07T15:13:09;6.60;;;2.90;;
842;SDS011;407;48.884;9.126;2023-05-07T15:15:35;8.65;;;3.15;;
842;SDS011;407;48.884;9.126;2023-05-07T15:18:01;6.95;;;2.70;;
842;SDS011;407;48.884;9.126;2023-05-07T15:20:27;9.45;;;3.65;;
842;SDS011;407;48.884;9.126;2023-05-07T15:22:53;6.63;;;2.70;;
842;SDS011;407;48.884;9.126;2023-05-07T15:25:20;7.30;;;3.30;;
842;SDS011;407;48.884;9.126;2023-05-07T15:27:45;8.20;;;2.80;;
842;SDS011;407;48.884;9.126;2023-05-07T15:30:11;6.90;;;3.10;;
842;SDS011;407;48.884;9.126;2023-05-07T15:32:39;7.40;;;3.38;;
842;SDS011;407;48.884;9.126;2023-05-07T15:35:05;7.03;;;2.87;;
842;SDS011;407;48.884;9.126;2023-05-07T15:37:31;9.13;;;2.75;;
842;SDS011;407;48.884;9.126;2023-05-07T15:39:57;6.63;;;2.60;;
842;SDS011;407;48.884;9.126;2023-05-07T15:42:23;8.80;;;2.60;;
842;SDS011;407;48.884;9.126;2023-05-07T15:44:49;6.80;;;2.60;;
842;SDS011;407;48.884;9.126;2023-05-07T15:47:14;7.60;;;2.90;;
842;SDS011;407;48.884;9.126;2023-05-07T15:49:43;6.65;;;2.85;;
842;SDS011;407;48.884;9.126;2023-05-07T15:52:09;6.93;;;2.70;;
842;SDS011;407;48.884;9.126;2023-05-07T15:54:35;7.07;;;3.00;;
842;SDS011;407;48.884;9.126;2023-05-07T15:57:02;7.78;;;3.65;;